createdAt,value
2018-07-06T00:02:26.824Z,14.40
2018-07-06T00:05:31.221Z,22.10
2018-07-06T00:08:35.906Z,25.57
2018-07-06T00:11:40.247Z,15.23
2018-07-06T00:14:44.799Z,12.13
2018-07-06T00:17:49.392Z,11.70
2018-07-06T00:20:54.398Z,13.17
2018-07-06T00:23:58.968Z,11.97
2018-07-06T00:27:03.619Z,9.80
2018-07-06T00:30:08.370Z,9.57
2018-07-06T00:33:13.510Z,9.17
2018-07-06T00:36:18.007Z,18.02
2018-07-06T00:39:23.276Z,15.27
2018-07-06T00:42:27.766Z,26.47
2018-07-06T00:45:32.443Z,31.33
2018-07-06T00:48:36.826Z,11.57
2018-07-06T00:51:41.396Z,10.27
2018-07-06T00:54:46.300Z,8.67
2018-07-06T00:57:51.267Z,12.25
2018-07-06T01:00:55.754Z,9.30
2018-07-06T01:04:00.271Z,11.70
2018-07-06T01:07:04.879Z,8.70
2018-07-06T01:10:10.462Z,9.97
2018-07-06T01:13:16.192Z,8.80
2018-07-06T01:16:21.059Z,10.10
2018-07-06T01:19:25.887Z,19.10
2018-07-06T01:22:30.369Z,14.23
2018-07-06T01:25:35.059Z,137.50
2018-07-06T01:28:39.649Z,133.53
2018-07-06T01:31:44.451Z,280.13
2018-07-06T01:34:49.630Z,224.00
2018-07-06T01:37:55.447Z,153.38
2018-07-06T01:41:00.319Z,192.50
2018-07-06T01:44:05.614Z,194.53
2018-07-06T01:47:10.182Z,221.30
2018-07-06T01:50:14.853Z,131.53
2018-07-06T01:53:19.302Z,54.97
2018-07-06T01:56:23.930Z,39.90
2018-07-06T01:59:28.982Z,26.30
2018-07-06T02:02:33.372Z,18.57
2018-07-06T02:05:37.849Z,49.27
2018-07-06T02:08:42.497Z,52.37
2018-07-06T02:11:47.228Z,7.60
2018-07-06T02:14:52.149Z,10.57
2018-07-06T02:17:56.655Z,8.47
2018-07-06T02:21:01.092Z,10.37
2018-07-06T02:24:05.932Z,7.47
2018-07-06T02:27:10.477Z,8.10
2018-07-06T02:30:15.517Z,16.17
2018-07-06T02:33:20.163Z,50.00
2018-07-06T02:36:25.682Z,120.20
2018-07-06T02:39:30.497Z,110.10
2018-07-06T02:42:35.046Z,102.07
2018-07-06T02:45:39.525Z,42.57
2018-07-06T02:48:44.236Z,41.10
2018-07-06T02:51:49.022Z,73.40
2018-07-06T02:54:53.772Z,20.17
2018-07-06T02:57:58.270Z,144.43
2018-07-06T03:01:02.709Z,38.07
2018-07-06T03:04:07.074Z,62.07
2018-07-06T03:07:11.607Z,52.80
2018-07-06T03:10:17.416Z,96.83
2018-07-06T03:13:22.422Z,192.40
2018-07-06T03:16:27.160Z,220.87
2018-07-06T03:19:32.034Z,331.33
2018-07-06T03:22:36.676Z,322.27
2018-07-06T03:25:41.783Z,223.97
2018-07-06T03:28:46.942Z,113.43
2018-07-06T03:31:52.537Z,53.47
2018-07-06T03:34:57.224Z,61.60
2018-07-06T03:38:01.724Z,48.77
2018-07-06T03:41:06.129Z,89.57
2018-07-06T03:44:11.570Z,10.73
2018-07-06T03:47:16.248Z,5.37
2018-07-06T03:50:20.662Z,5.47
2018-07-06T03:53:25.171Z,5.57
2018-07-06T03:56:30.782Z,4.47
2018-07-06T03:59:35.433Z,5.17
2018-07-06T04:02:40.353Z,11.17
2018-07-06T04:05:45.001Z,71.50
2018-07-06T04:08:49.921Z,38.90
2018-07-06T04:11:54.794Z,43.63
2018-07-06T04:15:00.545Z,22.40
2018-07-06T04:18:06.181Z,8.40
2018-07-06T04:21:11.020Z,5.90
2018-07-06T04:24:15.589Z,6.20
2018-07-06T04:27:20.198Z,6.47
2018-07-06T04:30:25.975Z,6.13
2018-07-06T04:33:31.366Z,6.23
2018-07-06T04:36:36.303Z,8.43
2018-07-06T04:39:41.014Z,7.40
2018-07-06T04:42:45.921Z,9.40
2018-07-06T04:45:50.749Z,7.77
2018-07-06T04:48:56.257Z,7.80
2018-07-06T04:52:01.817Z,10.20
2018-07-06T04:55:06.874Z,11.80
2018-07-06T04:58:11.881Z,13.35
2018-07-06T05:01:16.794Z,10.43
2018-07-06T05:04:21.104Z,7.93
2018-07-06T05:07:25.982Z,7.57
2018-07-06T05:10:30.624Z,9.67
2018-07-06T05:13:35.277Z,8.40
2018-07-06T05:16:40.743Z,9.53
2018-07-06T05:19:46.114Z,9.33
2018-07-06T05:22:50.617Z,10.00
2018-07-06T05:25:55.484Z,14.43
2018-07-06T05:29:00.342Z,8.87
2018-07-06T05:32:05.142Z,10.10
2018-07-06T05:35:10.053Z,15.27
2018-07-06T05:38:15.258Z,10.63
2018-07-06T05:41:19.736Z,13.27
2018-07-06T05:44:24.194Z,12.43
2018-07-06T05:47:28.606Z,11.90
2018-07-06T05:50:33.146Z,12.80
2018-07-06T05:53:37.747Z,12.03
2018-07-06T05:56:42.209Z,12.43
2018-07-06T05:59:46.711Z,14.83
2018-07-06T06:02:51.470Z,13.73
2018-07-06T06:05:56.178Z,14.53
2018-07-06T06:08:23.242Z,12.57
2018-07-06T06:10:50.808Z,13.60
2018-07-06T06:13:18.432Z,14.43
2018-07-06T06:15:46.775Z,14.27
2018-07-06T06:18:14.344Z,15.37
2018-07-06T06:20:41.963Z,15.77
2018-07-06T06:23:09.538Z,17.23
2018-07-06T06:25:37.106Z,14.47
2018-07-06T06:28:04.709Z,12.93
2018-07-06T06:30:33.047Z,14.50
2018-07-06T06:33:00.670Z,15.20
2018-07-06T06:35:28.674Z,15.37
2018-07-06T06:37:56.250Z,16.63
2018-07-06T06:40:23.827Z,18.67
2018-07-06T06:42:51.483Z,12.93
2018-07-06T06:45:19.059Z,16.90
2018-07-06T06:47:46.631Z,18.53
2018-07-06T06:50:15.019Z,14.93
2018-07-06T06:52:43.348Z,16.77
2018-07-06T06:55:10.932Z,16.80
2018-07-06T06:57:38.979Z,15.03
2018-07-06T07:00:06.552Z,14.35
2018-07-06T07:02:34.122Z,13.87
2018-07-06T07:05:01.753Z,12.67
2018-07-06T07:07:29.390Z,13.83
2018-07-06T07:09:56.926Z,13.83
2018-07-06T07:12:24.542Z,17.20
2018-07-06T07:14:52.116Z,13.73
2018-07-06T07:17:19.693Z,14.93
2018-07-06T07:19:47.345Z,14.40
2018-07-06T07:22:14.906Z,14.93
2018-07-06T07:24:42.479Z,10.47
2018-07-06T07:27:10.960Z,15.50
2018-07-06T07:29:38.530Z,14.73
2018-07-06T07:32:06.104Z,11.30
2018-07-06T07:34:34.489Z,14.73
2018-07-06T07:37:02.822Z,9.97
2018-07-06T07:39:30.395Z,12.53
2018-07-06T07:41:59.901Z,11.23
2018-07-06T07:44:27.471Z,10.85
2018-07-06T07:46:55.044Z,10.17
2018-07-06T07:49:22.693Z,11.53
2018-07-06T07:52:24.112Z,10.27
2018-07-06T07:54:51.663Z,10.80
2018-07-06T07:57:19.238Z,10.87
2018-07-06T07:59:46.802Z,10.00
2018-07-06T08:02:14.458Z,10.87
2018-07-06T08:04:42.030Z,9.57
2018-07-06T08:07:09.605Z,11.27
2018-07-06T08:09:37.219Z,8.10
2018-07-06T08:12:04.801Z,9.13
2018-07-06T08:14:32.394Z,8.17
2018-07-06T08:17:00.987Z,14.60
2018-07-06T08:19:28.555Z,8.03
2018-07-06T08:21:56.118Z,7.53
2018-07-06T08:24:23.726Z,8.00
2018-07-06T08:26:51.304Z,10.63
2018-07-06T08:29:18.855Z,9.47
2018-07-06T08:31:46.495Z,9.17
2018-07-06T08:34:33.317Z,7.70
2018-07-06T08:37:00.942Z,10.50
2018-07-06T08:39:28.516Z,8.90
2018-07-06T08:41:56.851Z,9.80
2018-07-06T08:44:24.835Z,8.47
2018-07-06T08:46:52.399Z,8.90
2018-07-06T08:49:19.966Z,11.13
2018-07-06T08:51:47.580Z,10.10
2018-07-06T08:54:15.151Z,8.77
2018-07-06T08:56:42.719Z,8.93
2018-07-06T08:59:10.330Z,7.53
2018-07-06T09:01:37.933Z,7.80
2018-07-06T09:04:06.346Z,10.30
2018-07-06T09:06:33.849Z,7.90
2018-07-06T09:09:01.410Z,7.53
2018-07-06T09:11:28.981Z,8.88
2018-07-06T09:13:56.647Z,6.60
2018-07-06T09:16:24.217Z,9.70
2018-07-06T09:18:51.780Z,7.47
2018-07-06T09:21:19.393Z,9.10
2018-07-06T09:23:46.964Z,7.83
2018-07-06T09:26:15.394Z,8.17
2018-07-06T09:28:42.917Z,6.53
2018-07-06T09:31:11.253Z,6.47
2018-07-06T09:33:38.821Z,7.80
2018-07-06T09:36:06.426Z,7.00
2018-07-06T09:38:33.982Z,6.40
2018-07-06T09:41:02.326Z,7.50
2018-07-06T09:43:29.980Z,10.27
2018-07-06T09:45:57.548Z,9.93
2018-07-06T09:48:25.116Z,7.78
2018-07-06T09:50:52.811Z,5.57
2018-07-06T09:53:20.340Z,7.43
2018-07-06T09:55:47.903Z,5.37
2018-07-06T09:58:15.553Z,8.05
2018-07-06T10:00:43.119Z,5.73
2018-07-06T10:03:10.682Z,4.60
2018-07-06T10:05:39.215Z,4.83
2018-07-06T10:08:06.729Z,4.33
2018-07-06T10:10:34.293Z,3.75
2018-07-06T10:13:01.911Z,4.60
2018-07-06T10:15:29.478Z,5.60
2018-07-06T10:17:57.045Z,5.30
2018-07-06T10:20:25.231Z,3.67
2018-07-06T10:22:52.813Z,4.60
2018-07-06T10:25:20.382Z,4.50
2018-07-06T10:27:48.013Z,3.77
2018-07-06T10:30:15.587Z,4.63
2018-07-06T10:32:43.147Z,4.43
2018-07-06T10:35:10.746Z,4.83
2018-07-06T10:37:39.079Z,4.93
2018-07-06T10:40:06.700Z,4.40
2018-07-06T10:42:34.610Z,6.80
2018-07-06T10:45:02.182Z,5.17
2018-07-06T10:47:29.743Z,8.03
2018-07-06T10:49:57.358Z,4.25
2018-07-06T10:52:24.925Z,6.77
2018-07-06T10:54:52.488Z,6.87
2018-07-06T10:57:20.106Z,4.10
2018-07-06T10:59:47.675Z,5.03
2018-07-06T11:02:16.002Z,4.83
2018-07-06T11:04:43.614Z,3.67
2018-07-06T11:07:11.945Z,4.30
2018-07-06T11:09:39.546Z,3.53
2018-07-06T11:12:07.154Z,4.80
2018-07-06T11:14:34.720Z,5.60
2018-07-06T11:17:02.288Z,6.00
2018-07-06T11:19:29.916Z,3.93
2018-07-06T11:21:57.483Z,4.63
2018-07-06T11:24:25.048Z,5.53
2018-07-06T11:26:52.657Z,11.57
2018-07-06T11:29:20.219Z,3.57
2018-07-06T11:31:47.781Z,5.53
2018-07-06T11:34:16.051Z,4.37
2018-07-06T11:36:43.612Z,5.50
2018-07-06T11:39:11.180Z,3.40
2018-07-06T11:41:39.049Z,5.63
2018-07-06T11:44:06.612Z,4.47
2018-07-06T11:46:34.178Z,4.80
2018-07-06T11:49:01.803Z,5.32
2018-07-06T11:51:29.365Z,5.73
2018-07-06T11:53:56.923Z,4.87
2018-07-06T11:56:24.569Z,3.03
2018-07-06T11:58:52.325Z,4.23
2018-07-06T12:01:20.656Z,5.07
2018-07-06T12:03:48.736Z,3.50
2018-07-06T12:06:16.308Z,4.47
2018-07-06T12:08:43.871Z,3.30
2018-07-06T12:11:11.521Z,3.53
2018-07-06T12:13:39.084Z,2.92
2018-07-06T12:16:06.643Z,4.03
2018-07-06T12:18:34.255Z,1.93
2018-07-06T12:21:01.887Z,3.70
2018-07-06T12:23:29.401Z,4.63
2018-07-06T12:25:57.053Z,3.40
2018-07-06T12:28:24.615Z,3.97
2018-07-06T12:30:52.181Z,2.63
2018-07-06T12:33:20.277Z,2.90
2018-07-06T12:35:47.841Z,3.80
2018-07-06T12:38:15.414Z,4.10
2018-07-06T12:40:43.378Z,2.87
2018-07-06T12:43:10.943Z,3.17
2018-07-06T12:45:38.506Z,2.60
2018-07-06T12:48:06.155Z,5.27
2018-07-06T12:50:33.715Z,2.80
2018-07-06T12:53:01.574Z,3.00
2018-07-06T12:55:30.376Z,3.40
2018-07-06T12:57:57.942Z,4.47
2018-07-06T13:00:25.500Z,3.33
2018-07-06T13:02:53.111Z,5.57
2018-07-06T13:05:20.674Z,4.80
2018-07-06T13:07:48.242Z,3.50
2018-07-06T13:10:15.891Z,3.30
2018-07-06T13:12:44.225Z,4.00
2018-07-06T13:15:11.793Z,5.93
2018-07-06T13:17:39.970Z,4.50
2018-07-06T13:20:07.541Z,4.30
2018-07-06T13:22:35.112Z,2.63
2018-07-06T13:25:02.737Z,3.78
2018-07-06T13:27:30.311Z,4.40
2018-07-06T13:29:57.871Z,3.47
2018-07-06T13:32:26.046Z,4.77
2018-07-06T13:34:53.603Z,5.40
2018-07-06T13:37:21.166Z,5.20
2018-07-06T13:39:48.786Z,2.47
2018-07-06T13:42:16.358Z,3.15
2018-07-06T13:44:43.928Z,2.00
2018-07-06T13:47:11.582Z,3.27
2018-07-06T13:49:39.148Z,2.93
2018-07-06T13:52:06.716Z,5.70
2018-07-06T13:54:34.330Z,2.30
2018-07-06T13:57:02.667Z,3.60
2018-07-06T13:59:30.261Z,1.80
2018-07-06T14:01:57.832Z,1.97
2018-07-06T14:04:25.401Z,4.60
2018-07-06T14:06:52.973Z,1.77
2018-07-06T14:09:20.991Z,3.10
2018-07-06T14:11:48.600Z,3.07
2018-07-06T14:14:16.120Z,3.80
2018-07-06T14:16:43.790Z,1.83
2018-07-06T14:19:11.355Z,3.42
2018-07-06T14:21:38.919Z,7.07
2018-07-06T14:24:06.566Z,1.97
2018-07-06T14:26:34.144Z,2.50
2018-07-06T14:29:01.711Z,1.80
2018-07-06T14:31:29.351Z,1.95
2018-07-06T14:33:56.916Z,4.00
2018-07-06T14:36:24.483Z,3.37
2018-07-06T14:38:52.111Z,1.90
2018-07-06T14:41:19.680Z,1.90
2018-07-06T14:43:47.241Z,4.30
2018-07-06T14:46:14.863Z,2.70
2018-07-06T14:48:43.200Z,3.83
2018-07-06T14:51:10.774Z,1.97
2018-07-06T14:53:38.837Z,2.03
2018-07-06T14:56:06.401Z,2.67
2018-07-06T14:58:33.975Z,2.53
2018-07-06T15:01:02.032Z,4.30
2018-07-06T15:03:29.590Z,3.43
2018-07-06T15:05:57.151Z,1.63
2018-07-06T15:08:24.763Z,2.83
2018-07-06T15:10:52.338Z,1.70
2018-07-06T15:13:19.911Z,2.20
2018-07-06T15:15:47.916Z,2.87
2018-07-06T15:18:15.522Z,1.73
2018-07-06T15:20:43.041Z,1.93
2018-07-06T15:23:11.303Z,2.35
2018-07-06T15:25:38.914Z,2.13
2018-07-06T15:28:06.438Z,3.03
2018-07-06T15:30:35.002Z,2.47
2018-07-06T15:33:02.565Z,2.30
2018-07-06T15:35:30.131Z,1.70
2018-07-06T15:37:58.094Z,1.40
2018-07-06T15:40:25.655Z,1.97
2018-07-06T15:42:53.221Z,1.80
2018-07-06T15:45:20.830Z,2.00
2018-07-06T15:47:48.395Z,7.07
2018-07-06T15:50:15.967Z,2.03
2018-07-06T15:52:43.620Z,2.27
2018-07-06T15:55:11.186Z,2.53
2018-07-06T15:57:38.748Z,2.73
2018-07-06T16:00:06.764Z,2.63
2018-07-06T16:02:34.332Z,4.37
2018-07-06T16:05:01.907Z,3.50
2018-07-06T16:07:29.554Z,3.43
2018-07-06T16:09:57.112Z,2.93
2018-07-06T16:12:24.681Z,2.90
2018-07-06T16:14:52.974Z,7.93
2018-07-06T16:17:20.545Z,3.22
2018-07-06T16:19:48.111Z,3.10
2018-07-06T16:22:16.518Z,3.50
2018-07-06T16:24:44.084Z,6.30
2018-07-06T16:27:11.644Z,3.37
2018-07-06T16:29:40.259Z,5.70
2018-07-06T16:32:07.824Z,2.80
2018-07-06T16:34:35.392Z,3.87
2018-07-06T16:37:03.007Z,8.33
2018-07-06T16:39:30.577Z,3.45
2018-07-06T16:41:58.147Z,3.30
2018-07-06T16:44:26.234Z,2.93
2018-07-06T16:46:53.804Z,3.30
2018-07-06T16:49:21.367Z,2.93
2018-07-06T16:51:48.978Z,5.17
2018-07-06T16:54:16.538Z,4.03
2018-07-06T16:56:44.097Z,3.40
2018-07-06T16:59:11.695Z,4.47
2018-07-06T17:01:39.262Z,3.40
2018-07-06T17:04:06.824Z,4.37
2018-07-06T17:06:35.206Z,3.20
2018-07-06T17:09:02.765Z,3.67
2018-07-06T17:11:30.363Z,3.67
2018-07-06T17:13:59.230Z,4.93
2018-07-06T17:16:26.796Z,4.20
2018-07-06T17:18:54.358Z,3.50
2018-07-06T17:21:22.005Z,7.67
2018-07-06T17:23:49.574Z,4.20
2018-07-06T17:26:17.136Z,4.10
2018-07-06T17:28:44.771Z,6.50
2018-07-06T17:31:12.335Z,5.10
2018-07-06T17:33:39.923Z,3.73
2018-07-06T17:36:08.236Z,6.23
2018-07-06T17:38:35.754Z,5.90
2018-07-06T17:41:03.326Z,8.93
2018-07-06T17:43:31.494Z,4.85
2018-07-06T17:45:59.061Z,5.40
2018-07-06T17:48:26.623Z,4.00
2018-07-06T17:50:54.615Z,5.80
2018-07-06T17:53:22.967Z,6.07
2018-07-06T17:55:50.530Z,4.30
2018-07-06T17:58:18.905Z,4.37
2018-07-06T18:00:46.473Z,5.20
2018-07-06T18:03:14.036Z,7.00
2018-07-06T18:05:42.200Z,5.62
2018-07-06T18:08:09.764Z,5.33
2018-07-06T18:10:37.360Z,4.40
2018-07-06T18:13:04.983Z,6.23
2018-07-06T18:15:32.549Z,5.60
2018-07-06T18:18:00.114Z,7.03
2018-07-06T18:20:27.735Z,5.23
2018-07-06T18:22:55.383Z,5.75
2018-07-06T18:25:22.870Z,5.57
2018-07-06T18:27:50.468Z,6.13
2018-07-06T18:30:18.027Z,5.77
2018-07-06T18:32:45.608Z,6.73
2018-07-06T18:35:14.364Z,7.57
2018-07-06T18:37:41.925Z,7.37
2018-07-06T18:40:09.495Z,6.83
2018-07-06T18:42:37.144Z,8.98
2018-07-06T18:45:04.711Z,6.80
2018-07-06T18:47:32.322Z,8.13
2018-07-06T18:49:59.923Z,7.37
2018-07-06T18:52:27.500Z,8.23
2018-07-06T18:54:55.077Z,10.10
2018-07-06T18:57:22.690Z,7.70
2018-07-06T18:59:50.256Z,7.50
2018-07-06T19:02:17.820Z,7.00
2018-07-06T19:04:45.430Z,6.13
2018-07-06T19:07:13.000Z,7.53
2018-07-06T19:09:41.332Z,6.77
2018-07-06T19:12:08.987Z,6.37
2018-07-06T19:14:36.547Z,5.87
2018-07-06T19:17:04.114Z,7.50
2018-07-06T19:19:32.307Z,8.80
2018-07-06T19:21:59.874Z,7.23
2018-07-06T19:24:27.445Z,7.73
2018-07-06T19:26:55.094Z,7.65
2018-07-06T19:29:22.664Z,6.37
2018-07-06T19:31:50.225Z,6.60
2018-07-06T19:34:18.716Z,10.43
2018-07-06T19:36:46.280Z,8.15
2018-07-06T19:39:15.118Z,7.37
2018-07-06T19:41:43.446Z,6.37
2018-07-06T19:44:11.011Z,8.80
2018-07-06T19:46:38.577Z,8.83
2018-07-06T19:49:07.022Z,8.17
2018-07-06T19:51:34.584Z,7.30
2018-07-06T19:54:02.149Z,7.23
2018-07-06T19:56:29.775Z,10.77
2018-07-06T19:58:57.346Z,8.18
2018-07-06T20:01:24.910Z,7.60
2018-07-06T20:03:52.596Z,6.43
2018-07-06T20:06:20.128Z,9.37
2018-07-06T20:08:47.694Z,6.90
2018-07-06T20:11:15.311Z,7.10
2018-07-06T20:13:42.872Z,10.63
2018-07-06T20:16:11.221Z,7.90
2018-07-06T20:18:39.290Z,7.57
2018-07-06T20:21:06.861Z,7.80
2018-07-06T20:23:34.435Z,9.27
2018-07-06T20:26:02.392Z,7.17
2018-07-06T20:28:29.994Z,7.43
2018-07-06T20:30:58.339Z,11.75
2018-07-06T20:33:25.982Z,7.80
2018-07-06T20:35:53.544Z,8.98
2018-07-06T20:38:21.113Z,9.03
2018-07-06T20:40:49.089Z,8.13
2018-07-06T20:43:16.653Z,7.93
2018-07-06T20:45:44.216Z,10.53
2018-07-06T20:48:11.833Z,11.67
2018-07-06T20:50:39.404Z,9.50
2018-07-06T20:53:06.975Z,10.47
2018-07-06T20:55:35.064Z,8.90
2018-07-06T20:58:02.638Z,9.00
2018-07-06T21:00:30.207Z,14.83
2018-07-06T21:02:57.856Z,9.50
2018-07-06T21:05:25.430Z,8.80
2018-07-06T21:07:53.004Z,10.07
2018-07-06T21:10:21.384Z,9.47
2018-07-06T21:12:49.724Z,9.60
2018-07-06T21:15:17.294Z,9.57
2018-07-06T21:17:44.948Z,15.57
2018-07-06T21:20:12.526Z,11.13
2018-07-06T21:22:40.094Z,11.07
2018-07-06T21:25:07.715Z,10.13
2018-07-06T21:27:35.287Z,12.88
2018-07-06T21:30:02.892Z,10.47
2018-07-06T21:32:30.461Z,10.60
2018-07-06T21:34:58.806Z,12.93
2018-07-06T21:37:26.391Z,12.40
2018-07-06T21:39:54.766Z,13.70
2018-07-06T21:42:22.341Z,11.77
2018-07-06T21:44:49.908Z,9.83
2018-07-06T21:47:18.551Z,11.37
2018-07-06T21:49:46.118Z,12.30
2018-07-06T21:52:13.701Z,11.88
2018-07-06T21:54:41.300Z,10.20
2018-07-06T21:57:08.870Z,11.43
2018-07-06T21:59:36.435Z,14.07
2018-07-06T22:02:04.056Z,10.73
2018-07-06T22:04:32.395Z,11.63
2018-07-06T22:06:59.969Z,11.87
2018-07-06T22:09:28.037Z,17.60
2018-07-06T22:11:55.609Z,13.40
2018-07-06T22:14:23.203Z,11.10
2018-07-06T22:16:51.574Z,12.37
2018-07-06T22:19:19.143Z,11.67
2018-07-06T22:21:47.471Z,11.97
2018-07-06T22:24:15.074Z,10.63
2018-07-06T22:26:43.410Z,11.73
2018-07-06T22:29:10.975Z,10.50
2018-07-06T22:31:38.950Z,11.87
2018-07-06T22:34:06.528Z,11.30
2018-07-06T22:36:34.096Z,10.73
2018-07-06T22:39:01.711Z,12.20
2018-07-06T22:41:29.289Z,13.00
2018-07-06T22:43:56.858Z,11.33
2018-07-06T22:46:24.464Z,10.80
2018-07-06T22:48:52.805Z,10.93
2018-07-06T22:51:20.388Z,13.57
2018-07-06T22:53:47.996Z,11.95
2018-07-06T22:56:15.574Z,12.67
2018-07-06T22:58:43.141Z,11.20
2018-07-06T23:01:10.759Z,11.20
2018-07-06T23:03:38.331Z,12.88
2018-07-06T23:06:05.903Z,12.07
2018-07-06T23:08:34.017Z,14.07
2018-07-06T23:11:01.591Z,11.67
2018-07-06T23:13:29.182Z,13.17
2018-07-06T23:15:57.552Z,13.20
2018-07-06T23:18:25.123Z,11.90
2018-07-06T23:20:52.697Z,12.13
2018-07-06T23:23:20.317Z,16.27
2018-07-06T23:25:47.889Z,14.60
2018-07-06T23:28:16.235Z,11.60
2018-07-06T23:30:43.840Z,11.50
2018-07-06T23:33:11.413Z,12.27
2018-07-06T23:35:38.993Z,11.30
2018-07-06T23:38:06.630Z,11.97
2018-07-06T23:40:34.203Z,12.97
2018-07-06T23:43:01.775Z,14.77
2018-07-06T23:45:29.379Z,14.07
2018-07-06T23:47:56.952Z,14.23
2018-07-06T23:50:25.289Z,12.87
2018-07-06T23:52:52.898Z,13.90
2018-07-06T23:55:21.255Z,14.50
2018-07-06T23:57:48.845Z,13.93
